createdAt,value
2022-10-08T00:00:30.072Z,19.06
2022-10-08T00:01:31.751Z,19.06
2022-10-08T00:02:33.268Z,19.07
2022-10-08T00:03:35.660Z,19.08
2022-10-08T00:04:37.245Z,19.08
2022-10-08T00:05:38.772Z,19.09
2022-10-08T00:06:40.285Z,19.09
2022-10-08T00:07:44.300Z,19.06
2022-10-08T00:08:55.383Z,19.02
2022-10-08T00:09:56.873Z,18.97
2022-10-08T00:10:59.282Z,18.92
2022-10-08T00:12:00.818Z,18.89
2022-10-08T00:13:02.349Z,18.90
2022-10-08T00:14:03.929Z,18.84
2022-10-08T00:15:05.591Z,18.94
2022-10-08T00:16:08.159Z,18.95
2022-10-08T00:17:09.661Z,18.91
2022-10-08T00:18:11.317Z,18.93
2022-10-08T00:19:13.832Z,18.94
2022-10-08T00:20:15.348Z,18.93
2022-10-08T00:21:18.129Z,18.95
2022-10-08T00:22:19.714Z,18.95
2022-10-08T00:23:21.434Z,18.97
2022-10-08T00:24:23.782Z,18.98
2022-10-08T00:25:25.274Z,19.00
2022-10-08T00:26:27.125Z,19.01
2022-10-08T00:27:29.365Z,19.03
2022-10-08T00:28:30.853Z,19.04
2022-10-08T00:29:33.384Z,19.07
2022-10-08T00:30:38.161Z,19.06
2022-10-08T00:31:40.549Z,19.09
2022-10-08T00:32:42.163Z,19.10
2022-10-08T00:33:43.734Z,19.11
2022-10-08T00:34:45.542Z,19.10
2022-10-08T00:35:46.993Z,19.11
2022-10-08T00:36:50.422Z,19.11
2022-10-08T00:37:51.884Z,19.11
2022-10-08T00:38:56.763Z,19.10
2022-10-08T00:39:58.208Z,19.09
2022-10-08T00:41:00.167Z,19.10
2022-10-08T00:42:02.462Z,19.11
2022-10-08T00:43:03.934Z,19.10
2022-10-08T00:44:23.860Z,19.10
2022-10-08T00:45:25.476Z,19.11
2022-10-08T00:46:44.261Z,19.11
2022-10-08T00:47:46.632Z,19.10
2022-10-08T00:48:48.317Z,19.10
2022-10-08T00:49:51.135Z,19.10
2022-10-08T00:50:52.599Z,19.12
2022-10-08T00:51:54.642Z,19.13
2022-10-08T00:52:57.013Z,19.13
2022-10-08T00:53:58.730Z,19.14
2022-10-08T00:55:00.302Z,19.15
2022-10-08T00:56:02.528Z,19.15
2022-10-08T00:57:04.052Z,19.16
2022-10-08T00:58:07.579Z,19.16
2022-10-08T00:59:09.190Z,19.17
2022-10-08T01:00:12.362Z,19.15
2022-10-08T01:01:13.914Z,19.13
2022-10-08T01:02:15.906Z,19.09
2022-10-08T01:03:17.737Z,19.06
2022-10-08T01:04:19.174Z,19.08
2022-10-08T01:05:43.758Z,19.08
2022-10-08T01:06:56.826Z,19.07
2022-10-08T01:08:05.179Z,19.08
2022-10-08T01:09:11.081Z,19.08
2022-10-08T01:10:20.526Z,19.09
2022-10-08T01:11:28.167Z,19.09
2022-10-08T01:12:37.450Z,19.10
2022-10-08T01:13:38.968Z,19.10
2022-10-08T01:14:44.909Z,19.11
2022-10-08T01:15:49.267Z,19.12
2022-10-08T01:16:57.161Z,19.12
2022-10-08T01:18:07.632Z,19.13
2022-10-08T01:19:16.813Z,19.14
2022-10-08T01:20:18.407Z,19.15
2022-10-08T01:21:38.597Z,19.14
2022-10-08T01:22:58.814Z,19.15
2022-10-08T01:24:12.276Z,19.15
2022-10-08T01:25:32.368Z,19.14
2022-10-08T01:26:33.806Z,19.13
2022-10-08T01:27:38.383Z,19.13
2022-10-08T01:28:43.724Z,19.11
2022-10-08T01:29:45.864Z,19.13
2022-10-08T01:30:49.896Z,19.12
2022-10-08T01:31:55.108Z,19.13
2022-10-08T01:32:57.817Z,19.10
2022-10-08T01:34:00.347Z,19.10
2022-10-08T01:35:02.840Z,19.10
2022-10-08T01:36:05.159Z,19.10
2022-10-08T01:37:06.882Z,19.09
2022-10-08T01:38:08.359Z,19.06
2022-10-08T01:39:13.624Z,19.08
2022-10-08T01:40:16.980Z,19.09
2022-10-08T01:41:18.511Z,19.07
2022-10-08T01:42:20.054Z,19.07
2022-10-08T01:43:21.520Z,19.06
2022-10-08T01:44:33.722Z,19.06
2022-10-08T01:45:36.151Z,19.05
2022-10-08T01:46:37.792Z,19.05
2022-10-08T01:47:39.664Z,19.04
2022-10-08T01:48:41.142Z,19.02
2022-10-08T01:49:43.932Z,19.01
2022-10-08T01:50:47.837Z,19.00
2022-10-08T01:51:53.051Z,18.98
2022-10-08T01:52:55.239Z,18.97
2022-10-08T01:53:56.722Z,18.97
2022-10-08T01:54:59.476Z,18.97
2022-10-08T01:56:01.495Z,18.94
2022-10-08T01:57:02.995Z,18.95
2022-10-08T01:58:06.023Z,18.95
2022-10-08T01:59:07.511Z,18.94
2022-10-08T02:00:09.915Z,18.95
2022-10-08T02:01:16.088Z,18.94
2022-10-08T02:02:18.892Z,18.95
2022-10-08T02:03:20.376Z,18.94
2022-10-08T02:04:34.170Z,18.95
2022-10-08T02:05:35.692Z,18.95
2022-10-08T02:06:37.200Z,18.95
2022-10-08T02:07:42.449Z,18.95
2022-10-08T02:08:43.903Z,18.95
2022-10-08T02:09:45.942Z,18.96
2022-10-08T02:10:47.505Z,18.98
2022-10-08T02:11:48.957Z,18.98
2022-10-08T02:12:50.634Z,18.96
2022-10-08T02:13:52.353Z,18.97
2022-10-08T02:14:54.297Z,18.96
2022-10-08T02:15:55.808Z,18.96
2022-10-08T02:17:03.322Z,18.97
2022-10-08T02:18:11.354Z,18.98
2022-10-08T02:19:15.984Z,18.98
2022-10-08T02:20:32.427Z,18.99
2022-10-08T02:21:34.332Z,19.00
2022-10-08T02:22:36.715Z,18.99
2022-10-08T02:23:38.706Z,18.99
2022-10-08T02:24:40.855Z,19.00
2022-10-08T02:26:00.550Z,18.99
2022-10-08T02:27:03.894Z,18.96
2022-10-08T02:28:11.503Z,19.01
2022-10-08T02:29:24.970Z,19.01
2022-10-08T02:30:26.457Z,19.01
2022-10-08T02:31:36.830Z,19.01
2022-10-08T02:32:49.366Z,19.00
2022-10-08T02:34:02.179Z,19.00
2022-10-08T02:35:25.330Z,19.00
2022-10-08T02:36:28.150Z,18.99
2022-10-08T02:37:31.645Z,19.00
2022-10-08T02:38:38.111Z,18.98
2022-10-08T02:39:40.250Z,18.93
2022-10-08T02:40:42.727Z,18.93
2022-10-08T02:41:44.683Z,18.93
2022-10-08T02:42:50.069Z,18.92
2022-10-08T02:43:52.000Z,18.92
2022-10-08T02:44:55.253Z,18.91
2022-10-08T02:45:58.094Z,18.91
2022-10-08T02:47:00.402Z,18.91
2022-10-08T02:48:12.073Z,18.89
2022-10-08T02:49:18.132Z,18.89
2022-10-08T02:50:20.753Z,18.90
2022-10-08T02:51:22.210Z,18.89
2022-10-08T02:52:23.970Z,18.90
2022-10-08T02:53:25.710Z,18.91
2022-10-08T02:54:27.158Z,18.90
2022-10-08T02:55:47.114Z,18.89
2022-10-08T02:56:51.032Z,18.88
2022-10-08T02:57:57.996Z,18.88
2022-10-08T02:59:00.065Z,18.87
2022-10-08T03:00:01.632Z,18.86
2022-10-08T03:01:03.194Z,18.85
2022-10-08T03:02:05.417Z,18.84
2022-10-08T03:03:28.890Z,18.83
2022-10-08T03:04:31.896Z,18.81
2022-10-08T03:05:33.330Z,18.80
2022-10-08T03:06:35.958Z,18.79
2022-10-08T03:07:37.522Z,18.78
2022-10-08T03:08:41.118Z,18.76
2022-10-08T03:09:43.212Z,18.75
2022-10-08T03:10:44.690Z,18.73
2022-10-08T03:11:46.207Z,18.72
2022-10-08T03:12:47.888Z,18.71
2022-10-08T03:13:49.671Z,18.68
2022-10-08T03:14:52.381Z,18.66
2022-10-08T03:15:53.954Z,18.63
2022-10-08T03:16:55.499Z,18.61
2022-10-08T03:17:56.991Z,18.60
2022-10-08T03:18:59.197Z,18.59
2022-10-08T03:20:04.142Z,18.57
2022-10-08T03:21:07.050Z,18.56
2022-10-08T03:22:08.639Z,18.56
2022-10-08T03:23:10.117Z,18.54
2022-10-08T03:24:12.258Z,18.53
2022-10-08T03:25:13.765Z,18.54
2022-10-08T03:26:16.731Z,18.53
2022-10-08T03:27:18.175Z,18.52
2022-10-08T03:28:19.643Z,18.52
2022-10-08T03:29:21.653Z,18.50
2022-10-08T03:30:23.101Z,18.49
2022-10-08T03:31:24.547Z,18.48
2022-10-08T03:32:26.266Z,18.47
2022-10-08T03:33:27.686Z,18.45
2022-10-08T03:34:29.243Z,18.44
2022-10-08T03:35:30.723Z,18.42
2022-10-08T03:36:32.299Z,18.40
2022-10-08T03:37:33.748Z,18.35
2022-10-08T03:38:35.215Z,18.31
2022-10-08T03:39:36.707Z,18.31
2022-10-08T03:40:38.198Z,18.28
2022-10-08T03:41:39.701Z,18.27
2022-10-08T03:42:41.187Z,18.27
2022-10-08T03:43:42.668Z,18.26
2022-10-08T03:44:44.150Z,18.27
2022-10-08T03:45:51.790Z,18.26
2022-10-08T03:46:53.296Z,18.25
2022-10-08T03:47:54.756Z,18.24
2022-10-08T03:48:56.188Z,18.23
2022-10-08T03:49:57.688Z,18.21
2022-10-08T03:51:02.638Z,18.17
2022-10-08T03:52:04.141Z,18.13
2022-10-08T03:53:05.675Z,18.12
2022-10-08T03:54:07.138Z,18.13
2022-10-08T03:55:08.611Z,18.11
2022-10-08T03:56:17.029Z,18.11
2022-10-08T03:57:18.496Z,18.10
2022-10-08T03:58:20.401Z,18.08
2022-10-08T03:59:21.940Z,18.07
2022-10-08T04:00:23.383Z,18.07
2022-10-08T04:01:25.217Z,18.04
2022-10-08T04:02:26.910Z,18.01
2022-10-08T04:03:28.608Z,17.98
2022-10-08T04:04:30.110Z,17.97
2022-10-08T04:05:31.681Z,17.96
2022-10-08T04:06:33.177Z,17.93
2022-10-08T04:07:34.901Z,17.93
2022-10-08T04:08:36.420Z,17.92
2022-10-08T04:09:37.947Z,17.90
2022-10-08T04:10:39.427Z,17.90
2022-10-08T04:11:40.937Z,17.89
2022-10-08T04:12:42.506Z,17.87
2022-10-08T04:13:44.224Z,17.86
2022-10-08T04:14:45.711Z,17.86
2022-10-08T04:15:48.272Z,17.84
2022-10-08T04:16:49.871Z,17.82
2022-10-08T04:17:51.318Z,17.81
2022-10-08T04:18:52.767Z,17.77
2022-10-08T04:19:54.305Z,17.75
2022-10-08T04:20:59.093Z,17.72
2022-10-08T04:22:00.548Z,17.69
2022-10-08T04:23:02.030Z,17.63
2022-10-08T04:24:03.570Z,17.64
2022-10-08T04:25:05.222Z,17.63
2022-10-08T04:26:06.777Z,17.63
2022-10-08T04:27:08.343Z,17.63
2022-10-08T04:28:09.863Z,17.63
2022-10-08T04:29:12.594Z,17.64
2022-10-08T04:30:14.137Z,17.64
2022-10-08T04:31:19.266Z,17.64
2022-10-08T04:32:20.861Z,17.63
2022-10-08T04:33:22.365Z,17.57
2022-10-08T04:34:23.824Z,17.54
2022-10-08T04:35:25.312Z,17.51
2022-10-08T04:36:26.753Z,17.53
2022-10-08T04:37:28.233Z,17.51
2022-10-08T04:38:29.719Z,17.52
2022-10-08T04:39:31.149Z,17.53
2022-10-08T04:40:32.606Z,17.54
2022-10-08T04:41:34.072Z,17.53
2022-10-08T04:42:35.506Z,17.54
2022-10-08T04:43:37.289Z,17.53
2022-10-08T04:44:38.744Z,17.52
2022-10-08T04:45:43.911Z,17.53
2022-10-08T04:46:45.459Z,17.52
2022-10-08T04:47:46.993Z,17.51
2022-10-08T04:48:49.236Z,17.50
2022-10-08T04:49:50.738Z,17.48
2022-10-08T04:50:55.691Z,17.47
2022-10-08T04:51:57.121Z,17.45
2022-10-08T04:52:58.581Z,17.44
2022-10-08T04:54:00.083Z,17.45
2022-10-08T04:55:01.590Z,17.40
2022-10-08T04:56:19.050Z,17.39
2022-10-08T04:57:20.513Z,17.37
2022-10-08T04:58:22.251Z,17.36
2022-10-08T04:59:23.732Z,17.35
2022-10-08T05:00:25.262Z,17.33
2022-10-08T05:01:26.785Z,17.33
2022-10-08T05:02:28.456Z,17.31
2022-10-08T05:03:30.046Z,17.29
2022-10-08T05:04:31.501Z,17.28
2022-10-08T05:05:32.979Z,17.27
2022-10-08T05:06:34.891Z,17.26
2022-10-08T05:07:36.567Z,17.25
2022-10-08T05:08:38.030Z,17.23
2022-10-08T05:09:39.475Z,17.22
2022-10-08T05:10:47.294Z,17.21
2022-10-08T05:11:49.850Z,17.20
2022-10-08T05:12:51.308Z,17.19
2022-10-08T05:13:53.223Z,17.16
2022-10-08T05:14:54.698Z,17.16
2022-10-08T05:15:56.180Z,17.15
2022-10-08T05:16:57.748Z,17.15
2022-10-08T05:17:59.191Z,17.14
2022-10-08T05:19:00.698Z,17.13
2022-10-08T05:20:02.524Z,17.12
2022-10-08T05:21:08.012Z,17.12
2022-10-08T05:22:09.486Z,17.10
2022-10-08T05:23:10.949Z,17.12
2022-10-08T05:24:12.432Z,17.10
2022-10-08T05:25:13.937Z,17.10
2022-10-08T05:26:15.832Z,17.09
2022-10-08T05:27:17.297Z,17.05
2022-10-08T05:28:18.767Z,17.05
2022-10-08T05:29:20.483Z,17.04
2022-10-08T05:30:22.219Z,17.03
2022-10-08T05:31:24.077Z,16.91
2022-10-08T05:32:25.667Z,17.00
2022-10-08T05:33:27.169Z,17.00
2022-10-08T05:34:28.617Z,16.98
2022-10-08T05:35:30.070Z,16.96
2022-10-08T05:36:31.830Z,16.94
2022-10-08T05:37:33.419Z,16.92
2022-10-08T05:38:35.449Z,16.89
2022-10-08T05:39:36.959Z,16.90
2022-10-08T05:40:38.413Z,16.89
2022-10-08T05:41:40.340Z,16.89
2022-10-08T05:42:41.806Z,16.88
2022-10-08T05:43:43.313Z,16.87
2022-10-08T05:44:45.593Z,16.86
2022-10-08T05:45:50.864Z,16.82
2022-10-08T05:46:52.435Z,16.82
2022-10-08T05:47:54.079Z,16.81
2022-10-08T05:48:55.868Z,16.82
2022-10-08T05:49:57.319Z,16.81
2022-10-08T05:51:08.613Z,16.81
2022-10-08T05:52:10.204Z,16.80
2022-10-08T05:53:11.745Z,16.79
2022-10-08T05:54:13.338Z,16.80
2022-10-08T05:55:14.818Z,16.80
2022-10-08T05:56:17.388Z,16.80
2022-10-08T05:57:18.829Z,16.80
2022-10-08T05:58:20.321Z,16.80
2022-10-08T05:59:22.602Z,16.77
2022-10-08T06:00:24.043Z,16.77
2022-10-08T06:01:29.378Z,16.77
2022-10-08T06:02:31.133Z,16.79
2022-10-08T06:03:32.656Z,16.80
2022-10-08T06:04:34.122Z,16.79
2022-10-08T06:05:35.676Z,16.77
2022-10-08T06:06:37.505Z,16.74
2022-10-08T06:07:38.948Z,16.68
2022-10-08T06:08:41.351Z,16.67
2022-10-08T06:09:44.979Z,16.66
2022-10-08T06:10:52.383Z,16.66
2022-10-08T06:11:53.879Z,16.67
2022-10-08T06:12:55.331Z,16.61
2022-10-08T06:13:57.198Z,16.67
2022-10-08T06:14:58.691Z,16.68
2022-10-08T06:16:01.018Z,16.68
2022-10-08T06:17:02.507Z,16.69
2022-10-08T06:18:04.053Z,16.69
2022-10-08T06:19:05.600Z,16.69
2022-10-08T06:20:07.375Z,16.71
2022-10-08T06:21:15.783Z,16.70
2022-10-08T06:22:17.395Z,16.70
2022-10-08T06:23:19.046Z,16.71
2022-10-08T06:24:21.595Z,16.72
2022-10-08T06:25:23.073Z,16.72
2022-10-08T06:26:26.852Z,16.72
2022-10-08T06:27:30.131Z,16.68
2022-10-08T06:28:32.375Z,16.72
2022-10-08T06:29:33.935Z,16.72
2022-10-08T06:30:35.777Z,16.73
2022-10-08T06:31:37.414Z,16.74
2022-10-08T06:32:38.899Z,16.73
2022-10-08T06:33:40.403Z,16.73
2022-10-08T06:34:42.129Z,16.72
2022-10-08T06:35:43.630Z,16.74
2022-10-08T06:36:45.157Z,16.75
2022-10-08T06:37:49.463Z,16.75
2022-10-08T06:38:51.420Z,16.77
2022-10-08T06:39:52.923Z,16.80
2022-10-08T06:40:56.744Z,16.81
2022-10-08T06:41:58.228Z,16.83
2022-10-08T06:43:07.616Z,16.85
2022-10-08T06:44:10.426Z,16.87
2022-10-08T06:45:11.924Z,16.91
2022-10-08T06:46:13.527Z,16.94
2022-10-08T06:47:14.978Z,16.96
2022-10-08T06:48:16.476Z,17.01
2022-10-08T06:49:18.349Z,16.99
2022-10-08T06:50:19.788Z,17.05
2022-10-08T06:51:21.295Z,17.08
2022-10-08T06:52:22.726Z,17.12
2022-10-08T06:53:24.236Z,17.16
2022-10-08T06:54:27.399Z,17.20
2022-10-08T06:55:28.841Z,17.25
2022-10-08T06:56:30.347Z,17.28
2022-10-08T06:57:31.864Z,17.31
2022-10-08T06:58:36.496Z,17.32
2022-10-08T06:59:41.158Z,17.34
2022-10-08T07:00:42.740Z,17.40
2022-10-08T07:01:44.363Z,17.44
2022-10-08T07:02:46.098Z,17.53
2022-10-08T07:03:51.032Z,17.60
2022-10-08T07:04:52.544Z,17.69
2022-10-08T07:05:54.011Z,17.76
2022-10-08T07:06:55.479Z,17.82
2022-10-08T07:07:56.925Z,17.90
2022-10-08T07:09:02.806Z,17.97
2022-10-08T07:10:07.282Z,18.08
2022-10-08T07:11:17.913Z,18.18
2022-10-08T07:12:19.362Z,18.29
2022-10-08T07:13:21.035Z,18.37
2022-10-08T07:14:22.501Z,18.45
2022-10-08T07:15:24.000Z,18.53
2022-10-08T07:16:26.124Z,18.61
2022-10-08T07:17:28.734Z,18.66
2022-10-08T07:18:30.826Z,18.75
2022-10-08T07:19:32.285Z,18.87
2022-10-08T07:20:33.823Z,18.96
2022-10-08T07:21:35.258Z,19.06
2022-10-08T07:22:36.729Z,19.19
2022-10-08T07:23:38.255Z,19.28
2022-10-08T07:24:39.774Z,19.34
2022-10-08T07:25:41.234Z,19.38
2022-10-08T07:26:42.896Z,19.45
2022-10-08T07:27:45.129Z,19.45
2022-10-08T07:28:53.746Z,19.44
2022-10-08T07:29:55.192Z,19.44
2022-10-08T07:30:56.626Z,19.45
2022-10-08T07:31:58.123Z,19.44
2022-10-08T07:33:00.647Z,19.45
2022-10-08T07:34:02.925Z,19.44
2022-10-08T07:35:04.809Z,19.42
2022-10-08T07:36:16.613Z,19.39
2022-10-08T07:37:18.061Z,19.37
2022-10-08T07:38:19.736Z,19.35
2022-10-08T07:39:21.869Z,19.26
2022-10-08T07:40:23.447Z,19.27
2022-10-08T07:41:25.005Z,19.28
2022-10-08T07:42:26.788Z,19.35
2022-10-08T07:43:28.294Z,19.44
2022-10-08T07:44:29.787Z,19.52
2022-10-08T07:45:31.536Z,19.60
2022-10-08T07:46:33.604Z,19.71
2022-10-08T07:47:35.138Z,19.84
2022-10-08T07:48:36.742Z,20.01
2022-10-08T07:49:38.223Z,20.16
2022-10-08T07:50:39.711Z,20.34
2022-10-08T07:51:44.280Z,20.54
2022-10-08T07:52:45.970Z,20.74
2022-10-08T07:53:47.648Z,20.87
2022-10-08T07:54:49.119Z,21.03
2022-10-08T07:55:50.624Z,21.16
2022-10-08T07:56:52.067Z,21.28
2022-10-08T07:57:54.176Z,21.38
2022-10-08T07:58:55.713Z,21.54
2022-10-08T07:59:57.383Z,21.68
2022-10-08T08:00:59.423Z,21.84
2022-10-08T08:02:01.037Z,21.98
2022-10-08T08:03:02.530Z,22.12
2022-10-08T08:04:04.827Z,22.25
2022-10-08T08:05:06.568Z,22.36
2022-10-08T08:06:12.235Z,22.47
2022-10-08T08:07:13.723Z,22.55
2022-10-08T08:08:15.279Z,22.65
2022-10-08T08:09:18.188Z,22.73
2022-10-08T08:10:19.694Z,22.87
2022-10-08T08:11:21.978Z,23.02
2022-10-08T08:12:23.436Z,23.14
2022-10-08T08:13:24.972Z,23.15
2022-10-08T08:14:26.492Z,23.27
2022-10-08T08:15:27.962Z,23.44
2022-10-08T08:16:29.698Z,23.55
2022-10-08T08:17:31.200Z,23.67
2022-10-08T08:18:33.397Z,23.79
2022-10-08T08:19:36.957Z,23.94
2022-10-08T08:20:38.629Z,24.02
2022-10-08T08:21:40.165Z,23.90
2022-10-08T08:22:42.304Z,23.93
2022-10-08T08:23:44.566Z,23.95
2022-10-08T08:24:46.176Z,23.89
2022-10-08T08:25:47.701Z,23.86
2022-10-08T08:26:49.149Z,23.87
2022-10-08T08:27:50.613Z,23.77
2022-10-08T08:28:53.070Z,23.66
2022-10-08T08:29:54.526Z,23.60
2022-10-08T08:31:12.120Z,23.54
2022-10-08T08:32:15.647Z,23.48
2022-10-08T08:33:17.265Z,23.52
2022-10-08T08:34:21.915Z,23.59
2022-10-08T08:35:23.360Z,23.61
2022-10-08T08:36:27.043Z,23.72
2022-10-08T08:37:37.090Z,23.79
2022-10-08T08:38:39.609Z,23.89
2022-10-08T08:39:41.159Z,23.88
2022-10-08T08:40:42.638Z,24.01
2022-10-08T08:41:56.679Z,24.15
2022-10-08T08:42:58.273Z,24.30
2022-10-08T08:44:00.104Z,24.48
2022-10-08T08:45:01.979Z,24.62
2022-10-08T08:46:03.505Z,24.73
2022-10-08T08:47:05.132Z,24.89
2022-10-08T08:48:20.091Z,24.99
2022-10-08T08:49:24.043Z,25.13
2022-10-08T08:50:27.816Z,25.20
2022-10-08T08:51:29.324Z,25.18
2022-10-08T08:52:33.854Z,25.19
2022-10-08T08:53:35.374Z,25.21
2022-10-08T08:54:36.859Z,25.34
2022-10-08T08:55:45.261Z,25.45
2022-10-08T08:56:47.042Z,25.61
2022-10-08T08:57:56.006Z,25.72
2022-10-08T08:59:00.746Z,25.75
2022-10-08T09:00:22.224Z,25.74
2022-10-08T09:01:25.404Z,25.59
2022-10-08T09:02:28.526Z,25.57
2022-10-08T09:03:30.391Z,25.56
2022-10-08T09:04:31.814Z,25.56
2022-10-08T09:05:34.415Z,25.51
2022-10-08T09:06:35.979Z,25.49
2022-10-08T09:07:45.707Z,25.48
2022-10-08T09:08:49.888Z,25.50
2022-10-08T09:09:51.832Z,25.63
2022-10-08T09:11:02.910Z,25.75
2022-10-08T09:12:16.451Z,25.90
2022-10-08T09:13:21.215Z,26.09
2022-10-08T09:14:27.848Z,26.25
2022-10-08T09:15:31.219Z,26.45
2022-10-08T09:16:32.772Z,26.59
2022-10-08T09:17:35.596Z,26.68
2022-10-08T09:18:37.156Z,26.85
2022-10-08T09:19:38.889Z,26.97
2022-10-08T09:20:40.589Z,27.06
2022-10-08T09:21:42.135Z,27.09
2022-10-08T09:22:46.151Z,27.31
2022-10-08T09:23:47.932Z,27.49
2022-10-08T09:24:54.647Z,27.65
2022-10-08T09:26:00.623Z,27.77
2022-10-08T09:27:06.239Z,27.87
2022-10-08T09:28:08.173Z,27.83
2022-10-08T09:29:16.489Z,27.76
2022-10-08T09:30:24.144Z,27.88
2022-10-08T09:31:42.523Z,28.00
2022-10-08T09:32:44.114Z,28.01
2022-10-08T09:33:46.355Z,28.04
2022-10-08T09:34:48.425Z,28.00
2022-10-08T09:35:52.763Z,27.98
2022-10-08T09:36:54.247Z,27.96
2022-10-08T09:37:56.691Z,27.98
2022-10-08T09:38:58.564Z,27.96
2022-10-08T09:40:08.402Z,27.93
2022-10-08T09:41:18.809Z,27.92
2022-10-08T09:42:20.526Z,27.83
2022-10-08T09:43:22.481Z,27.73
2022-10-08T09:44:24.218Z,27.57
2022-10-08T09:45:38.643Z,27.43
2022-10-08T09:46:40.196Z,27.38
2022-10-08T09:47:41.634Z,27.32
2022-10-08T09:48:45.820Z,27.32
2022-10-08T09:49:50.020Z,27.43
2022-10-08T09:50:59.448Z,27.52
2022-10-08T09:52:02.337Z,27.57
2022-10-08T09:53:03.839Z,27.52
2022-10-08T09:54:05.350Z,27.47
2022-10-08T09:55:09.487Z,27.45
2022-10-08T09:56:10.980Z,27.50
2022-10-08T09:57:13.776Z,27.63
2022-10-08T09:58:16.160Z,27.61
2022-10-08T09:59:17.909Z,27.56
2022-10-08T10:00:27.021Z,27.54
2022-10-08T10:01:31.733Z,27.53
2022-10-08T10:02:34.320Z,27.51
2022-10-08T10:03:36.548Z,27.46
2022-10-08T10:04:38.404Z,27.43
2022-10-08T10:05:39.846Z,27.27
2022-10-08T10:06:41.300Z,27.15
2022-10-08T10:07:43.473Z,27.03
2022-10-08T10:08:48.511Z,26.94
2022-10-08T10:09:53.781Z,26.90
2022-10-08T10:10:55.217Z,26.83
2022-10-08T10:11:56.654Z,26.80
2022-10-08T10:13:02.748Z,26.74
2022-10-08T10:14:05.987Z,26.61
2022-10-08T10:15:21.278Z,26.50
2022-10-08T10:16:24.419Z,26.39
2022-10-08T10:17:44.678Z,26.30
2022-10-08T10:18:46.132Z,26.23
2022-10-08T10:19:49.968Z,26.19
2022-10-08T10:20:58.553Z,26.13
2022-10-08T10:22:03.078Z,26.10
2022-10-08T10:23:10.451Z,26.04
2022-10-08T10:24:21.142Z,26.01
2022-10-08T10:25:25.738Z,25.92
2022-10-08T10:26:28.508Z,25.92
2022-10-08T10:27:37.189Z,25.89
2022-10-08T10:28:40.719Z,25.87
2022-10-08T10:30:00.859Z,25.84
2022-10-08T10:31:05.318Z,25.81
2022-10-08T10:32:09.263Z,25.77
2022-10-08T10:33:12.263Z,25.76
2022-10-08T10:34:15.716Z,25.78
2022-10-08T10:35:17.692Z,25.76
2022-10-08T10:36:20.468Z,25.79
2022-10-08T10:37:27.383Z,25.77
2022-10-08T10:38:29.436Z,25.81
2022-10-08T10:39:30.966Z,25.82
2022-10-08T10:40:32.431Z,25.89
2022-10-08T10:41:43.431Z,26.01
2022-10-08T10:42:57.051Z,26.08
2022-10-08T10:44:02.967Z,26.19
2022-10-08T10:45:09.791Z,26.29
2022-10-08T10:46:25.060Z,26.37
2022-10-08T10:47:32.265Z,26.40
2022-10-08T10:48:33.948Z,26.47
2022-10-08T10:49:35.962Z,26.51
2022-10-08T10:50:38.548Z,26.50
2022-10-08T10:51:58.745Z,26.53
2022-10-08T10:53:00.235Z,26.51
2022-10-08T10:54:10.453Z,26.45
2022-10-08T10:55:11.902Z,26.37
2022-10-08T10:56:19.430Z,26.28
2022-10-08T10:57:20.883Z,26.19
2022-10-08T10:58:24.975Z,26.05
2022-10-08T10:59:45.155Z,25.95
2022-10-08T11:01:04.812Z,25.88
2022-10-08T11:02:11.325Z,25.77
2022-10-08T11:03:21.737Z,25.67
2022-10-08T11:04:31.382Z,25.61
2022-10-08T11:05:33.095Z,25.57
2022-10-08T11:06:34.518Z,25.51
2022-10-08T11:07:54.771Z,25.48
2022-10-08T11:09:15.138Z,25.37
2022-10-08T11:10:48.994Z,25.25
2022-10-08T11:11:52.327Z,25.18
2022-10-08T11:13:12.308Z,25.14
2022-10-08T11:14:32.561Z,25.11
2022-10-08T11:15:49.268Z,25.06
2022-10-08T11:17:02.833Z,25.01
2022-10-08T11:18:07.131Z,24.95
2022-10-08T11:19:37.900Z,24.91
2022-10-08T11:20:48.127Z,24.87
2022-10-08T11:21:49.540Z,24.83
2022-10-08T11:22:54.883Z,24.80
2022-10-08T11:23:58.186Z,24.76
2022-10-08T11:25:02.802Z,24.72
2022-10-08T11:26:23.612Z,24.63
2022-10-08T11:27:25.179Z,24.53
2022-10-08T11:28:26.687Z,24.48
2022-10-08T11:29:37.564Z,24.45
2022-10-08T11:30:48.293Z,24.40
2022-10-08T11:31:50.290Z,24.36
2022-10-08T11:32:52.515Z,24.32
2022-10-08T11:33:54.542Z,24.30
2022-10-08T11:35:05.098Z,24.28
2022-10-08T11:36:29.271Z,24.26
2022-10-08T11:38:07.957Z,24.17
2022-10-08T11:39:20.266Z,24.13
2022-10-08T11:40:37.776Z,24.04
2022-10-08T11:41:47.850Z,23.99
2022-10-08T11:42:52.770Z,23.93
2022-10-08T11:43:55.244Z,23.89
2022-10-08T11:45:15.912Z,23.83
2022-10-08T11:46:22.793Z,23.78
2022-10-08T11:47:36.553Z,23.77
2022-10-08T11:48:38.542Z,23.70
2022-10-08T11:49:40.077Z,23.67
2022-10-08T11:50:41.841Z,23.64
2022-10-08T11:51:44.890Z,23.63
2022-10-08T11:52:46.952Z,23.63
2022-10-08T11:54:07.757Z,23.61
2022-10-08T11:55:15.798Z,23.60
2022-10-08T11:56:18.736Z,23.59
2022-10-08T11:57:21.122Z,23.57
2022-10-08T11:58:23.894Z,23.55
2022-10-08T11:59:29.970Z,23.54
2022-10-08T12:00:43.794Z,23.51
2022-10-08T12:01:51.568Z,23.47
2022-10-08T12:02:53.699Z,23.45
2022-10-08T12:04:05.113Z,23.47
2022-10-08T12:05:16.920Z,23.47
2022-10-08T12:06:19.083Z,23.45
2022-10-08T12:07:23.091Z,23.43
2022-10-08T12:08:43.416Z,23.44
2022-10-08T12:10:00.160Z,23.46
2022-10-08T12:11:20.391Z,23.51
2022-10-08T12:12:21.877Z,23.52
2022-10-08T12:13:24.461Z,23.55
2022-10-08T12:14:26.334Z,23.56
2022-10-08T12:15:27.941Z,23.59
2022-10-08T12:16:55.955Z,23.60
2022-10-08T12:17:57.407Z,23.62
2022-10-08T12:18:59.043Z,23.59
2022-10-08T12:20:01.287Z,23.60
2022-10-08T12:21:18.043Z,23.62
2022-10-08T12:22:25.056Z,23.64
2022-10-08T12:23:29.248Z,23.65
2022-10-08T12:24:36.935Z,23.65
2022-10-08T12:25:44.463Z,23.65
2022-10-08T12:27:04.724Z,23.66
2022-10-08T12:28:21.634Z,23.64
2022-10-08T12:29:40.187Z,23.61
2022-10-08T12:30:51.251Z,23.61
2022-10-08T12:32:00.462Z,23.61
2022-10-08T12:33:01.980Z,23.61
2022-10-08T12:34:18.985Z,23.61
2022-10-08T12:35:23.120Z,23.56
2022-10-08T12:36:36.423Z,23.58
2022-10-08T12:37:43.975Z,23.54
2022-10-08T12:38:53.731Z,23.52
2022-10-08T12:39:55.199Z,23.52
2022-10-08T12:40:58.433Z,23.52
2022-10-08T12:42:03.275Z,23.53
2022-10-08T12:43:10.333Z,23.54
2022-10-08T12:44:30.367Z,23.49
2022-10-08T12:45:34.550Z,23.47
2022-10-08T12:46:41.765Z,23.46
2022-10-08T12:47:58.875Z,23.45
2022-10-08T12:49:20.821Z,23.48
2022-10-08T12:50:41.065Z,23.49
2022-10-08T12:51:54.502Z,23.52
2022-10-08T12:52:56.455Z,23.57
2022-10-08T12:53:58.296Z,23.60
2022-10-08T12:54:59.842Z,23.62
2022-10-08T12:56:01.293Z,23.63
2022-10-08T12:57:07.059Z,23.64
2022-10-08T12:58:11.007Z,23.65
2022-10-08T12:59:12.526Z,23.69
2022-10-08T13:00:23.622Z,23.72
2022-10-08T13:01:25.254Z,23.78
2022-10-08T13:02:47.065Z,23.83
2022-10-08T13:04:02.371Z,23.90
2022-10-08T13:05:04.815Z,23.95
2022-10-08T13:06:16.586Z,24.00
2022-10-08T13:07:18.770Z,24.06
2022-10-08T13:08:29.030Z,24.10
2022-10-08T13:09:31.220Z,24.11
2022-10-08T13:10:32.810Z,24.15
2022-10-08T13:11:34.624Z,24.15
2022-10-08T13:12:36.108Z,24.19
2022-10-08T13:13:40.789Z,24.20
2022-10-08T13:14:42.344Z,24.24
2022-10-08T13:15:45.066Z,24.24
2022-10-08T13:16:47.271Z,24.26
2022-10-08T13:17:49.487Z,24.28
2022-10-08T13:18:57.319Z,24.26
2022-10-08T13:20:28.289Z,24.26
2022-10-08T13:21:32.303Z,24.25
2022-10-08T13:22:33.870Z,24.25
2022-10-08T13:23:36.128Z,24.22
2022-10-08T13:24:38.903Z,24.23
2022-10-08T13:25:43.467Z,24.22
2022-10-08T13:26:45.469Z,24.21
2022-10-08T13:27:47.224Z,24.20
2022-10-08T13:29:00.148Z,24.20
2022-10-08T13:30:20.652Z,24.18
2022-10-08T13:31:23.022Z,24.15
2022-10-08T13:32:25.882Z,24.12
2022-10-08T13:33:30.405Z,24.10
2022-10-08T13:34:33.381Z,24.09
2022-10-08T13:35:35.649Z,24.08
2022-10-08T13:36:38.115Z,24.09
2022-10-08T13:37:39.930Z,24.08
2022-10-08T13:38:41.374Z,24.10
2022-10-08T13:39:52.274Z,24.12
2022-10-08T13:40:55.444Z,24.12
2022-10-08T13:41:57.781Z,24.12
2022-10-08T13:42:59.482Z,24.12
2022-10-08T13:44:06.315Z,24.14
2022-10-08T13:45:13.117Z,24.15
2022-10-08T13:46:15.253Z,24.18
2022-10-08T13:47:17.530Z,24.15
2022-10-08T13:48:18.960Z,24.14
2022-10-08T13:49:21.663Z,24.15